หน้าหลัก
METAR-TAF:

METAR-TAF

ท่าอากาศยาน :

วากาดูกู, บูร์กินาฟาโซ

ละติจูด: 12-21N, ลองจิจูด: 001-31W, ความสูง: 316 ม.

การสังเกตสภาพอากาศปัจจุบัน

รายงานได้ทำขึ้นเมื่อ 1 ชั่วโมงและ 11 นาทีที่แล้ว ณ เวลา 08:00 UTC
ลม 5 นอตจากเหนือ/ตะวันออกเฉียงเหนือ
อุณหภูมิ 27°C
ความชื้น 21%
ความกดอากาศ 1014 hPa
ทัศนวิสัย: 4000 ม.
เมฆหมอก

METAR: DFFD 250800Z 03005KT 4000 HZ NSC 27/03 Q1014 BECMG 6000 NSW

เวลา: 09:11 (09:11 UTC)

การพยากรณ์

รายงานได้ทำขึ้นเมื่อ 4 ชั่วโมงและ 11 นาทีที่แล้ว ณ เวลา 05:00 UTC
การพยากรณ์มีผลตั้งแต่วันที่ 25 ณ เวลา 06 UTC จนถึงวันที่ 26 ณ เวลา 12 UTC
ลม 10 นอตจากเหนือ/ตะวันออกเฉียงเหนือ
ทัศนวิสัย: 8000 ม.
ชั่วคราว
ตั้งแต่วันที่ 25 ณ เวลา 06 UTC จนถึงวันที่ 25 ณ เวลา 10 UTC
ทัศนวิสัย: 4000 ม.
เมฆหมอก
ชั่วคราว
ตั้งแต่วันที่ 26 ณ เวลา 06 UTC จนถึงวันที่ 26 ณ เวลา 10 UTC
ทัศนวิสัย: 4000 ม.
เมฆหมอก,

TAF: DFFD 250500Z 2506/2612 02010KT 8000 NSC TEMPO 2506/2510 4000 HZ TEMPO 2606/2610 4000 HZ

สังเกตการณ์สภาพอากาศและพยากรณ์อากาศของสนามบินมากกว่า 4000 แห่ง (รายงาน METAR และ TAF).

สถานีที่ดูได้จะแสดงไว้ด้วยจุดสีเหลืองและสีแดงบนแผนที่.

เลื่อนเมาส์ไปเหนือจุดเพื่อดูชื่อสถานี.

แล้วคลิกเพื่อดูสังเกตการณ์และการพยากรณ์สภาพอากาศ.

ในการเปลี่ยนแผนที่: คลิกที่ปุ่มสีเขียวที่มีกากบาทสีดำเพื่อซูมเข้า; ที่ปุ่มสีเขียวที่มีขีดเพื่อซูมออก; หรือที่ลูกศรสีเขียวเพื่อไปยังแผนที่ที่อยู่ติดกัน.


METAR-TAF: